createdAt,value
2022-07-30T00:00:47.035Z,17.85
2022-07-30T00:03:15.823Z,17.78
2022-07-30T00:05:44.514Z,17.71
2022-07-30T00:08:13.343Z,17.60
2022-07-30T00:10:41.836Z,17.49
2022-07-30T00:13:14.222Z,17.40
2022-07-30T00:15:43.241Z,17.35
2022-07-30T00:18:12.001Z,17.25
2022-07-30T00:20:43.579Z,17.22
2022-07-30T00:23:13.157Z,17.18
2022-07-30T00:25:41.430Z,17.12
2022-07-30T00:28:11.732Z,17.07
2022-07-30T00:30:40.818Z,17.05
2022-07-30T00:33:09.843Z,17.03
2022-07-30T00:35:40.019Z,17.02
2022-07-30T00:38:08.716Z,17.01
2022-07-30T00:40:37.117Z,17.01
2022-07-30T00:43:17.527Z,17.03
2022-07-30T00:45:46.196Z,17.01
2022-07-30T00:48:15.700Z,16.99
2022-07-30T00:50:45.267Z,17.01
2022-07-30T00:53:14.171Z,17.01
2022-07-30T00:55:46.015Z,16.99
2022-07-30T00:58:16.288Z,16.99
2022-07-30T01:00:45.714Z,16.98
2022-07-30T01:03:20.303Z,16.96
2022-07-30T01:05:49.248Z,16.98
2022-07-30T01:08:17.954Z,16.99
2022-07-30T01:10:46.392Z,16.99
2022-07-30T01:13:16.653Z,16.96
2022-07-30T01:15:45.442Z,16.95
2022-07-30T01:18:15.064Z,16.90
2022-07-30T01:20:46.407Z,16.93
2022-07-30T01:23:22.216Z,16.89
2022-07-30T01:25:56.197Z,16.89
2022-07-30T01:28:28.958Z,16.89
2022-07-30T01:30:59.171Z,16.86
2022-07-30T01:33:29.474Z,16.86
2022-07-30T01:35:58.986Z,16.89
2022-07-30T01:38:31.203Z,16.84
2022-07-30T01:41:05.612Z,16.82
2022-07-30T01:43:36.809Z,16.82
2022-07-30T01:46:06.448Z,16.85
2022-07-30T01:48:38.262Z,16.88
2022-07-30T01:51:06.788Z,16.89
2022-07-30T01:53:39.833Z,16.89
2022-07-30T01:56:11.585Z,16.91
2022-07-30T01:58:42.438Z,16.88
2022-07-30T02:01:22.534Z,16.88
2022-07-30T02:03:51.618Z,16.85
2022-07-30T02:06:23.026Z,16.86
2022-07-30T02:08:54.278Z,16.84
2022-07-30T02:11:39.035Z,16.79
2022-07-30T02:14:19.421Z,16.80
2022-07-30T02:16:51.710Z,16.84
2022-07-30T02:19:32.638Z,16.84
2022-07-30T02:22:08.495Z,16.82
2022-07-30T02:24:38.987Z,16.85
2022-07-30T02:27:12.471Z,16.85
2022-07-30T02:29:44.469Z,16.86
2022-07-30T02:32:14.769Z,16.87
2022-07-30T02:34:47.478Z,16.87
2022-07-30T02:37:43.328Z,16.85
2022-07-30T02:40:14.157Z,16.81
2022-07-30T02:42:46.891Z,16.78
2022-07-30T02:45:20.970Z,16.75
2022-07-30T02:47:52.661Z,16.73
2022-07-30T02:50:23.592Z,16.69
2022-07-30T02:52:53.375Z,16.70
2022-07-30T02:55:23.203Z,16.68
2022-07-30T02:57:54.880Z,16.70
2022-07-30T03:00:25.259Z,16.71
2022-07-30T03:02:56.787Z,16.71
2022-07-30T03:05:26.406Z,16.73
2022-07-30T03:07:56.595Z,16.76
2022-07-30T03:10:26.279Z,16.78
2022-07-30T03:12:57.700Z,16.78
2022-07-30T03:15:27.771Z,16.79
2022-07-30T03:17:56.836Z,16.82
2022-07-30T03:20:29.545Z,16.80
2022-07-30T03:22:59.966Z,16.79
2022-07-30T03:25:31.554Z,16.75
2022-07-30T03:28:05.103Z,16.72
2022-07-30T03:30:35.046Z,16.71
2022-07-30T03:33:04.202Z,16.69
2022-07-30T03:35:32.994Z,16.67
2022-07-30T03:38:02.813Z,16.58
2022-07-30T03:40:31.630Z,16.55
2022-07-30T03:43:00.426Z,16.58
2022-07-30T03:45:30.556Z,16.63
2022-07-30T03:48:08.981Z,16.67
2022-07-30T03:50:40.076Z,16.68
2022-07-30T03:53:11.247Z,16.74
2022-07-30T03:55:59.782Z,16.74
2022-07-30T03:59:03.872Z,16.77
2022-07-30T04:01:34.007Z,16.80
2022-07-30T04:04:12.498Z,16.88
2022-07-30T04:06:43.193Z,16.94
2022-07-30T04:09:13.540Z,17.01
2022-07-30T04:11:42.316Z,17.06
2022-07-30T04:14:15.157Z,17.08
2022-07-30T04:16:49.881Z,17.19
2022-07-30T04:19:23.892Z,17.27
2022-07-30T04:21:55.509Z,17.36
2022-07-30T04:24:25.252Z,17.51
2022-07-30T04:26:55.439Z,17.54
2022-07-30T04:29:24.853Z,17.60
2022-07-30T04:31:56.560Z,17.63
2022-07-30T04:34:49.981Z,17.63
2022-07-30T04:37:25.343Z,17.54
2022-07-30T04:39:56.203Z,17.62
2022-07-30T04:42:25.827Z,17.64
2022-07-30T04:45:08.123Z,17.75
2022-07-30T04:48:08.556Z,17.75
2022-07-30T04:50:57.115Z,17.76
2022-07-30T04:53:27.345Z,17.66
2022-07-30T04:55:59.646Z,17.67
2022-07-30T04:58:31.373Z,17.69
2022-07-30T05:01:02.078Z,17.69
2022-07-30T05:03:35.802Z,17.68
2022-07-30T05:06:04.900Z,17.60
2022-07-30T05:08:38.118Z,17.57
2022-07-30T05:11:12.973Z,17.51
2022-07-30T05:13:43.142Z,17.52
2022-07-30T05:16:16.363Z,17.48
2022-07-30T05:18:47.284Z,17.51
2022-07-30T05:21:15.935Z,17.49
2022-07-30T05:23:50.808Z,17.56
2022-07-30T05:26:42.473Z,17.63
2022-07-30T05:29:19.491Z,17.70
2022-07-30T05:32:11.455Z,17.75
2022-07-30T05:34:41.640Z,17.81
2022-07-30T05:37:12.386Z,17.79
2022-07-30T05:40:02.926Z,17.79
2022-07-30T05:42:56.676Z,17.70
2022-07-30T05:45:25.474Z,17.74
2022-07-30T05:47:55.315Z,17.73
2022-07-30T05:50:26.333Z,17.76
2022-07-30T05:52:56.129Z,17.75
2022-07-30T05:55:43.360Z,17.68
2022-07-30T05:58:37.007Z,17.83
2022-07-30T06:01:05.446Z,17.93
2022-07-30T06:03:35.593Z,17.98
2022-07-30T06:06:31.668Z,17.91
2022-07-30T06:09:01.228Z,17.92
2022-07-30T06:11:30.398Z,17.92
2022-07-30T06:13:59.128Z,17.96
2022-07-30T06:16:27.727Z,17.98
2022-07-30T06:18:57.851Z,18.13
2022-07-30T06:22:05.301Z,18.33
2022-07-30T06:24:30.736Z,18.55
2022-07-30T06:27:06.344Z,18.87
2022-07-30T06:29:35.061Z,19.07
2022-07-30T06:32:04.167Z,19.30
2022-07-30T06:34:32.553Z,19.38
2022-07-30T06:37:03.747Z,19.26
2022-07-30T06:39:57.446Z,19.40
2022-07-30T06:42:21.539Z,19.49
2022-07-30T06:45:22.483Z,19.48
2022-07-30T06:48:23.746Z,19.21
2022-07-30T06:50:53.990Z,19.11
2022-07-30T06:53:26.705Z,18.97
2022-07-30T06:56:24.506Z,18.79
2022-07-30T06:59:00.851Z,18.84
2022-07-30T07:02:07.990Z,19.19
2022-07-30T07:04:51.080Z,19.57
2022-07-30T07:07:37.182Z,19.93
2022-07-30T07:10:11.496Z,20.19
2022-07-30T07:12:54.548Z,20.46
2022-07-30T07:15:36.348Z,20.56
2022-07-30T07:18:07.535Z,20.26
2022-07-30T07:20:41.357Z,20.18
2022-07-30T07:23:12.422Z,20.39
2022-07-30T07:25:43.385Z,20.81
2022-07-30T07:28:13.692Z,21.09
2022-07-30T07:30:45.799Z,21.42
2022-07-30T07:33:16.398Z,21.56
2022-07-30T07:35:49.658Z,21.69
2022-07-30T07:38:28.041Z,21.84
2022-07-30T07:40:58.653Z,22.14
2022-07-30T07:43:27.402Z,22.59
2022-07-30T07:45:58.913Z,23.13
2022-07-30T07:48:30.409Z,23.44
2022-07-30T07:51:09.662Z,23.82
2022-07-30T07:53:39.121Z,23.97
2022-07-30T07:56:09.644Z,24.21
2022-07-30T07:58:40.528Z,24.79
2022-07-30T08:01:11.727Z,24.97
2022-07-30T08:04:03.303Z,25.35
2022-07-30T08:07:11.303Z,25.24
2022-07-30T08:09:58.773Z,25.38
2022-07-30T08:12:47.379Z,24.74
2022-07-30T08:15:21.916Z,24.86
2022-07-30T08:18:11.160Z,24.88
2022-07-30T08:20:57.422Z,24.93
2022-07-30T08:23:30.825Z,25.44
2022-07-30T08:26:00.014Z,25.79
2022-07-30T08:28:36.055Z,25.88
2022-07-30T08:31:07.058Z,25.92
2022-07-30T08:33:35.990Z,25.89
2022-07-30T08:36:09.745Z,26.23
2022-07-30T08:38:40.585Z,26.30
2022-07-30T08:41:10.263Z,26.21
2022-07-30T08:43:41.115Z,25.89
2022-07-30T08:46:11.478Z,25.94
2022-07-30T08:48:56.392Z,26.18
2022-07-30T08:51:26.257Z,26.39
2022-07-30T08:54:14.132Z,26.75
2022-07-30T08:56:43.689Z,26.52
2022-07-30T08:59:13.986Z,26.66
2022-07-30T09:01:42.384Z,26.85
2022-07-30T09:04:11.027Z,26.49
2022-07-30T09:06:41.009Z,25.98
2022-07-30T09:09:12.230Z,26.75
2022-07-30T09:11:43.002Z,26.96
2022-07-30T09:14:14.687Z,26.68
2022-07-30T09:16:45.430Z,26.77
2022-07-30T09:19:16.092Z,27.32
2022-07-30T09:21:56.703Z,27.84
2022-07-30T09:24:43.032Z,27.90
2022-07-30T09:27:45.314Z,27.74
2022-07-30T09:30:47.351Z,26.99
2022-07-30T09:33:37.583Z,26.45
2022-07-30T09:36:33.191Z,25.92
2022-07-30T09:39:30.187Z,25.84
2022-07-30T09:42:20.309Z,25.31
2022-07-30T09:44:49.882Z,25.26
2022-07-30T09:47:33.921Z,24.93
2022-07-30T09:50:07.840Z,24.80
2022-07-30T09:52:37.125Z,24.49
2022-07-30T09:55:14.457Z,24.21
2022-07-30T09:57:58.861Z,24.07
2022-07-30T10:00:30.119Z,23.92
2022-07-30T10:03:21.786Z,23.70
2022-07-30T10:06:20.823Z,23.43
2022-07-30T10:08:51.512Z,23.09
2022-07-30T10:11:23.619Z,23.03
2022-07-30T10:13:59.228Z,22.84
2022-07-30T10:16:29.840Z,22.72
2022-07-30T10:19:01.684Z,22.73
2022-07-30T10:22:10.575Z,22.66
2022-07-30T10:24:59.111Z,22.60
2022-07-30T10:27:57.758Z,22.50
2022-07-30T10:30:32.723Z,22.49
2022-07-30T10:33:02.426Z,22.35
2022-07-30T10:35:37.936Z,22.28
2022-07-30T10:38:13.437Z,22.13
2022-07-30T10:40:49.661Z,22.12
2022-07-30T10:43:36.471Z,22.08
2022-07-30T10:46:19.949Z,22.10
2022-07-30T10:48:51.922Z,21.92
2022-07-30T10:51:25.439Z,21.93
2022-07-30T10:54:03.557Z,21.92
2022-07-30T10:56:32.419Z,21.66
2022-07-30T10:59:03.348Z,21.52
2022-07-30T11:02:09.312Z,21.59
2022-07-30T11:04:39.795Z,21.64
2022-07-30T11:07:31.999Z,21.63
2022-07-30T11:10:08.791Z,21.56
2022-07-30T11:12:54.033Z,21.47
2022-07-30T11:15:23.699Z,21.49
2022-07-30T11:18:04.345Z,21.49
2022-07-30T11:20:34.273Z,21.32
2022-07-30T11:23:37.682Z,21.23
2022-07-30T11:26:08.501Z,21.20
2022-07-30T11:28:45.911Z,21.16
2022-07-30T11:31:36.997Z,20.92
2022-07-30T11:34:31.229Z,20.75
2022-07-30T11:37:18.722Z,20.77
2022-07-30T11:40:12.873Z,20.75
2022-07-30T11:42:42.256Z,20.74
2022-07-30T11:45:27.226Z,20.68
2022-07-30T11:47:58.547Z,20.56
2022-07-30T11:50:30.251Z,20.53
2022-07-30T11:53:02.461Z,20.48
2022-07-30T11:55:34.352Z,20.47
2022-07-30T11:58:05.391Z,20.38
2022-07-30T12:00:36.556Z,20.11
2022-07-30T12:03:15.632Z,20.16
2022-07-30T12:05:45.115Z,20.16
2022-07-30T12:08:31.975Z,20.17
2022-07-30T12:11:06.160Z,20.26
2022-07-30T12:13:44.843Z,20.32
2022-07-30T12:16:18.359Z,20.23
2022-07-30T12:18:48.435Z,20.39
2022-07-30T12:21:17.207Z,20.35
2022-07-30T12:23:55.860Z,20.42
2022-07-30T12:26:27.445Z,20.50
2022-07-30T12:28:56.945Z,20.43
2022-07-30T12:31:27.776Z,20.47
2022-07-30T12:33:59.125Z,20.48
2022-07-30T12:36:31.142Z,20.12
2022-07-30T12:39:00.600Z,19.96
2022-07-30T12:41:47.476Z,19.93
2022-07-30T12:44:37.834Z,19.76
2022-07-30T12:47:07.356Z,19.75
2022-07-30T12:49:36.890Z,19.88
2022-07-30T12:52:13.257Z,20.06
2022-07-30T12:54:47.201Z,20.00
2022-07-30T12:57:17.512Z,19.87
2022-07-30T12:59:46.038Z,19.86
2022-07-30T13:02:14.704Z,19.89
2022-07-30T13:04:54.781Z,19.79
2022-07-30T13:07:54.443Z,19.69
2022-07-30T13:10:27.196Z,19.57
2022-07-30T13:13:00.517Z,19.58
2022-07-30T13:15:29.097Z,19.64
2022-07-30T13:17:57.806Z,19.61
2022-07-30T13:20:26.678Z,19.63
2022-07-30T13:23:00.142Z,19.74
2022-07-30T13:25:38.815Z,19.82
2022-07-30T13:28:10.776Z,19.96
2022-07-30T13:30:39.342Z,20.04
2022-07-30T13:33:08.172Z,20.07
2022-07-30T13:35:37.170Z,20.11
2022-07-30T13:38:07.301Z,20.24
2022-07-30T13:40:36.597Z,20.27
2022-07-30T13:43:05.485Z,20.19
2022-07-30T13:45:36.093Z,20.07
2022-07-30T13:48:05.234Z,19.82
2022-07-30T13:50:33.981Z,19.59
2022-07-30T13:53:02.903Z,19.53
2022-07-30T13:55:31.319Z,19.41
2022-07-30T13:58:00.756Z,19.33
2022-07-30T14:00:32.614Z,19.24
2022-07-30T14:03:04.152Z,19.17
2022-07-30T14:05:33.347Z,19.11
2022-07-30T14:08:02.198Z,18.99
2022-07-30T14:10:30.752Z,18.96
2022-07-30T14:13:00.457Z,18.83
2022-07-30T14:15:31.143Z,18.82
2022-07-30T14:18:02.971Z,18.78
2022-07-30T14:20:33.559Z,18.73
2022-07-30T14:23:02.338Z,18.74
2022-07-30T14:25:32.348Z,18.72
2022-07-30T14:28:01.479Z,18.67
2022-07-30T14:30:30.633Z,18.68
2022-07-30T14:33:04.125Z,18.78
2022-07-30T14:35:34.883Z,18.70
2022-07-30T14:38:04.506Z,18.69
2022-07-30T14:40:35.650Z,18.72
2022-07-30T14:43:04.628Z,18.74
2022-07-30T14:45:36.658Z,18.75
2022-07-30T14:48:06.007Z,18.67
2022-07-30T14:50:51.245Z,18.72
2022-07-30T14:53:25.567Z,18.70
2022-07-30T14:55:54.085Z,18.79
2022-07-30T14:58:22.935Z,18.81
2022-07-30T15:00:52.348Z,18.82
2022-07-30T15:03:22.129Z,18.87
2022-07-30T15:05:54.318Z,18.85
2022-07-30T15:08:23.284Z,18.94
2022-07-30T15:10:51.802Z,18.95
2022-07-30T15:13:21.008Z,19.03
2022-07-30T15:15:50.506Z,19.02
2022-07-30T15:18:19.367Z,19.03
2022-07-30T15:20:48.141Z,18.97
2022-07-30T15:23:18.283Z,19.08
2022-07-30T15:25:48.862Z,19.15
2022-07-30T15:28:17.919Z,19.25
2022-07-30T15:30:46.539Z,19.27
2022-07-30T15:33:15.945Z,19.32
2022-07-30T15:35:44.815Z,19.32
2022-07-30T15:38:13.530Z,19.44
2022-07-30T15:40:43.942Z,19.42
2022-07-30T15:43:12.588Z,19.43
2022-07-30T15:45:54.753Z,19.44
2022-07-30T15:48:27.296Z,19.43
2022-07-30T15:51:02.041Z,19.37
2022-07-30T15:53:31.334Z,19.47
2022-07-30T15:56:02.127Z,19.52
2022-07-30T15:58:30.630Z,19.49
2022-07-30T16:00:59.511Z,19.57
2022-07-30T16:03:32.700Z,19.45
2022-07-30T16:06:01.321Z,19.46
2022-07-30T16:08:30.141Z,19.42
2022-07-30T16:11:03.797Z,19.37
2022-07-30T16:13:34.254Z,19.35
2022-07-30T16:16:02.907Z,19.40
2022-07-30T16:18:31.729Z,19.37
2022-07-30T16:21:01.465Z,19.43
2022-07-30T16:23:36.399Z,19.40
2022-07-30T16:26:05.612Z,19.29
2022-07-30T16:28:35.359Z,19.18
2022-07-30T16:31:04.298Z,19.21
2022-07-30T16:33:33.778Z,19.24
2022-07-30T16:36:02.426Z,19.20
2022-07-30T16:38:31.252Z,19.12
2022-07-30T16:41:01.721Z,19.09
2022-07-30T16:43:32.007Z,19.11
2022-07-30T16:46:02.164Z,19.10
2022-07-30T16:48:33.855Z,19.01
2022-07-30T16:51:02.538Z,18.99
2022-07-30T16:53:31.310Z,18.94
2022-07-30T16:56:00.842Z,18.96
2022-07-30T16:58:31.089Z,18.95
2022-07-30T17:01:01.653Z,18.93
2022-07-30T17:03:30.521Z,18.92
2022-07-30T17:06:00.787Z,18.89
2022-07-30T17:08:29.621Z,18.93
2022-07-30T17:10:58.962Z,18.87
2022-07-30T17:13:27.343Z,18.89
2022-07-30T17:15:56.040Z,18.93
2022-07-30T17:18:26.123Z,18.89
2022-07-30T17:20:55.119Z,18.84
2022-07-30T17:23:23.864Z,18.78
2022-07-30T17:25:52.282Z,18.57
2022-07-30T17:28:26.917Z,18.47
2022-07-30T17:30:56.090Z,18.40
2022-07-30T17:33:26.231Z,18.28
2022-07-30T17:35:55.009Z,18.23
2022-07-30T17:38:23.691Z,18.16
2022-07-30T17:40:52.063Z,17.93
2022-07-30T17:43:22.525Z,17.85
2022-07-30T17:45:51.213Z,17.81
2022-07-30T17:48:21.853Z,17.73
2022-07-30T17:50:51.743Z,17.61
2022-07-30T17:53:20.377Z,17.59
2022-07-30T17:55:57.473Z,17.53
2022-07-30T17:58:26.974Z,17.53
2022-07-30T18:00:55.953Z,17.47
2022-07-30T18:03:24.654Z,17.41
2022-07-30T18:05:57.156Z,17.45
2022-07-30T18:08:29.233Z,17.40
2022-07-30T18:10:58.732Z,17.39
2022-07-30T18:13:27.614Z,17.38
2022-07-30T18:15:56.464Z,17.32
2022-07-30T18:18:25.258Z,17.31
2022-07-30T18:20:55.427Z,17.31
2022-07-30T18:23:24.114Z,17.22
2022-07-30T18:26:00.812Z,17.20
2022-07-30T18:28:31.012Z,17.22
2022-07-30T18:30:59.637Z,17.20
2022-07-30T18:33:28.410Z,17.14
2022-07-30T18:35:58.800Z,17.10
2022-07-30T18:38:27.254Z,17.11
2022-07-30T18:41:02.956Z,17.09
2022-07-30T18:43:32.788Z,17.09
2022-07-30T18:46:16.740Z,17.03
2022-07-30T18:48:47.041Z,16.99
2022-07-30T18:51:17.590Z,17.01
2022-07-30T18:53:46.524Z,16.94
2022-07-30T18:56:15.157Z,16.87
2022-07-30T18:58:43.930Z,16.93
2022-07-30T19:01:12.865Z,16.93
2022-07-30T19:03:41.572Z,16.94
2022-07-30T19:06:10.641Z,16.94
2022-07-30T19:08:40.780Z,16.88
2022-07-30T19:11:09.603Z,16.78
2022-07-30T19:13:40.095Z,16.69
2022-07-30T19:16:10.045Z,16.60
2022-07-30T19:18:38.799Z,16.58
2022-07-30T19:21:10.071Z,16.58
2022-07-30T19:23:44.250Z,16.54
2022-07-30T19:26:14.682Z,16.49
2022-07-30T19:28:43.010Z,16.52
2022-07-30T19:31:11.793Z,16.54
2022-07-30T19:33:41.590Z,16.51
2022-07-30T19:36:10.538Z,16.50
2022-07-30T19:38:42.117Z,16.47
2022-07-30T19:41:14.116Z,16.45
2022-07-30T19:43:57.620Z,16.51
2022-07-30T19:46:27.213Z,16.47
2022-07-30T19:48:57.701Z,16.47
2022-07-30T19:52:22.243Z,16.47
2022-07-30T19:54:16.488Z,16.43
2022-07-30T19:56:46.874Z,16.43
2022-07-30T19:59:15.852Z,16.35
2022-07-30T20:01:44.459Z,16.33
2022-07-30T20:04:16.566Z,16.37
2022-07-30T20:06:46.085Z,16.37
2022-07-30T20:09:16.310Z,16.35
2022-07-30T20:11:46.415Z,16.31
2022-07-30T20:14:16.290Z,16.34
2022-07-30T20:19:36.233Z,16.29
2022-07-30T20:22:06.581Z,16.27
2022-07-30T20:24:35.369Z,16.26
2022-07-30T20:27:35.551Z,16.26
2022-07-30T20:29:56.171Z,16.24
2022-07-30T20:32:25.804Z,16.18
2022-07-30T20:34:54.100Z,16.21
2022-07-30T20:37:23.531Z,16.11
2022-07-30T20:39:56.274Z,16.05
2022-07-30T20:42:26.641Z,16.00
2022-07-30T20:44:57.038Z,15.98
2022-07-30T20:47:38.125Z,15.93
2022-07-30T20:50:09.619Z,15.97
2022-07-30T20:52:40.416Z,16.00
2022-07-30T20:55:10.180Z,16.00
2022-07-30T20:58:00.202Z,16.02
2022-07-30T21:00:31.687Z,16.02
2022-07-30T21:03:03.319Z,16.02
2022-07-30T21:05:32.353Z,15.96
2022-07-30T21:08:00.918Z,15.95
2022-07-30T21:10:29.250Z,15.90
2022-07-30T21:13:07.524Z,15.82
2022-07-30T21:15:37.187Z,15.75
2022-07-30T21:18:25.771Z,15.70
2022-07-30T21:20:56.808Z,15.66
2022-07-30T21:23:27.077Z,15.60
2022-07-30T21:26:00.653Z,15.58
2022-07-30T21:28:35.601Z,15.56
2022-07-30T21:31:06.925Z,15.57
2022-07-30T21:33:36.795Z,15.53
2022-07-30T21:36:10.702Z,15.51
2022-07-30T21:38:41.920Z,15.45
2022-07-30T21:41:14.151Z,15.48
2022-07-30T21:43:45.591Z,15.46
2022-07-30T21:46:15.440Z,15.40
2022-07-30T21:48:58.361Z,15.30
2022-07-30T21:51:28.269Z,15.28
2022-07-30T21:53:58.840Z,15.22
2022-07-30T21:56:27.410Z,15.18
2022-07-30T21:58:57.074Z,15.14
2022-07-30T22:01:25.772Z,15.07
2022-07-30T22:04:01.501Z,15.05
2022-07-30T22:06:34.177Z,15.01
2022-07-30T22:09:18.589Z,15.00
2022-07-30T22:12:00.807Z,14.95
2022-07-30T22:14:31.739Z,14.96
2022-07-30T22:17:00.542Z,14.90
2022-07-30T22:19:33.397Z,14.85
2022-07-30T22:22:05.243Z,14.85
2022-07-30T22:24:50.739Z,14.88
2022-07-30T22:27:19.290Z,14.90
2022-07-30T22:29:55.728Z,14.85
2022-07-30T22:32:24.715Z,14.80
2022-07-30T22:34:53.059Z,14.73
2022-07-30T22:37:22.989Z,14.68
2022-07-30T22:39:54.192Z,14.63
2022-07-30T22:42:23.938Z,14.63
2022-07-30T22:44:55.476Z,14.71
2022-07-30T22:47:53.905Z,14.74
2022-07-30T22:50:15.125Z,14.73
2022-07-30T22:52:58.501Z,14.78
2022-07-30T22:55:34.800Z,14.77
2022-07-30T22:58:03.986Z,14.77
2022-07-30T23:00:34.060Z,14.80
2022-07-30T23:03:02.675Z,14.84
2022-07-30T23:05:31.546Z,14.84
2022-07-30T23:08:04.239Z,14.83
2022-07-30T23:10:32.802Z,14.83
2022-07-30T23:12:16.037Z,16.32
2022-07-30T23:13:01.865Z,14.82
2022-07-30T23:15:30.799Z,14.84
2022-07-30T23:18:00.823Z,14.83
2022-07-30T23:20:29.488Z,14.81
2022-07-30T23:22:58.172Z,14.82
2022-07-30T23:25:27.466Z,14.81
2022-07-30T23:28:07.558Z,14.86
2022-07-30T23:30:36.216Z,14.84
2022-07-30T23:33:06.745Z,14.79
2022-07-30T23:35:35.530Z,14.82
2022-07-30T23:38:04.199Z,14.83
2022-07-30T23:40:33.189Z,14.79
2022-07-30T23:43:01.829Z,14.82
2022-07-30T23:45:30.826Z,14.84
2022-07-30T23:48:02.499Z,14.81
2022-07-30T23:50:34.143Z,14.90
2022-07-30T23:53:03.628Z,14.96
2022-07-30T23:55:33.177Z,15.04
2022-07-30T23:58:01.866Z,15.06
